AFL273 VTBS-UUEE
Flight info
| Callsign | AFL273 |
|---|---|
| Flight time | N/A |
| Altitude | 34000 |
| Route | N0490F340 NUNLI L507 CEA R460 GGC L509 TAPIS M875 MILSO M161 LEDGI M166 ARISA L736 OLOPI |
| Aircraft | B77W/H-V/N |
Departure
| Time | 2026-04-30 19:17 |
|---|---|
| Airport | Suvarnabhumi Airport (VTBS) |
Arrival
| Time | N/A |
|---|---|
| Airport | Sheremetyevo International Airport (UUEE) |
| Time | Latitude | Longitude | Altitude | Speed | Heading |
|---|---|---|---|---|---|
| 2026-04-30 18:51 | 13.68763 | 100.74873 | 18 ft | 0 kts | 104° |
| 2026-04-30 19:03 | 13.68764 | 100.74868 | 18 ft | 2 kts | 104° |
| 2026-04-30 19:03 | 13.68775 | 100.74835 | 20 ft | 2 kts | 111° |
| 2026-04-30 19:04 | 13.68788 | 100.74804 | 21 ft | 2 kts | 120° |
| 2026-04-30 19:04 | 13.68807 | 100.74776 | 20 ft | 2 kts | 133° |
| 2026-04-30 19:05 | 13.68833 | 100.74755 | 22 ft | 2 kts | 154° |
| 2026-04-30 19:05 | 13.68864 | 100.74746 | 21 ft | 2 kts | 179° |
| 2026-04-30 19:06 | 13.68887 | 100.74749 | 20 ft | 0 kts | 193° |
| 2026-04-30 19:08 | 13.68877 | 100.74746 | 18 ft | 4 kts | 193° |
| 2026-04-30 19:09 | 13.68827 | 100.74734 | 18 ft | 4 kts | 193° |
| 2026-04-30 19:09 | 13.68804 | 100.74728 | 18 ft | 4 kts | 193° |
| 2026-04-30 19:09 | 13.68789 | 100.74725 | 18 ft | 4 kts | 193° |
| 2026-04-30 19:10 | 13.68741 | 100.74713 | 18 ft | 3 kts | 193° |
| 2026-04-30 19:10 | 13.68708 | 100.74690 | 18 ft | 3 kts | 236° |
| 2026-04-30 19:11 | 13.68705 | 100.74669 | 18 ft | 3 kts | 276° |
| 2026-04-30 19:11 | 13.68714 | 100.74626 | 18 ft | 3 kts | 282° |
| 2026-04-30 19:11 | 13.68718 | 100.74604 | 20 ft | 3 kts | 282° |
| 2026-04-30 19:12 | 13.68725 | 100.74574 | 18 ft | 7 kts | 282° |
| 2026-04-30 19:12 | 13.68738 | 100.74506 | 18 ft | 13 kts | 282° |
| 2026-04-30 19:12 | 13.68760 | 100.74402 | 18 ft | 17 kts | 282° |
| 2026-04-30 19:13 | 13.68812 | 100.74114 | 19 ft | 22 kts | 230° |
| 2026-04-30 19:13 | 13.68475 | 100.74018 | 19 ft | 29 kts | 193° |
| 2026-04-30 19:13 | 13.68264 | 100.73960 | 20 ft | 34 kts | 195° |
| 2026-04-30 19:14 | 13.68028 | 100.73897 | 18 ft | 37 kts | 194° |
| 2026-04-30 19:14 | 13.67762 | 100.73827 | 18 ft | 41 kts | 194° |
| 2026-04-30 19:14 | 13.67487 | 100.73754 | 18 ft | 40 kts | 194° |
| 2026-04-30 19:14 | 13.67257 | 100.73695 | 19 ft | 33 kts | 194° |
| 2026-04-30 19:15 | 13.67106 | 100.73630 | 18 ft | 19 kts | 241° |
| 2026-04-30 19:15 | 13.67241 | 100.73501 | 18 ft | 0 kts | 12° |
| 2026-04-30 19:16 | 13.67424 | 100.73546 | 19 ft | 69 kts | 14° |
| 2026-04-30 19:16 | 13.69487 | 100.74085 | 64 ft | 224 kts | 14° |
| 2026-04-30 19:17 | 13.70986 | 100.74477 | 1222 ft | 220 kts | 15° |
| 2026-04-30 19:17 | 13.74157 | 100.75233 | 2907 ft | 251 kts | 12° |
| 2026-04-30 19:17 | 13.75879 | 100.75638 | 3439 ft | 258 kts | 14° |
| 2026-04-30 19:18 | 13.78278 | 100.76315 | 4056 ft | 273 kts | 17° |
| 2026-04-30 19:18 | 13.81375 | 100.77192 | 5111 ft | 280 kts | 13° |
| 2026-04-30 19:18 | 13.83316 | 100.77232 | 5646 ft | 285 kts | 342° |
| 2026-04-30 19:19 | 13.85036 | 100.76249 | 6226 ft | 284 kts | 322° |
| 2026-04-30 19:19 | 13.86619 | 100.74999 | 6840 ft | 289 kts | 322° |
| 2026-04-30 19:19 | 13.89308 | 100.72932 | 7930 ft | 291 kts | 323° |
| 2026-04-30 19:20 | 13.90955 | 100.71688 | 8555 ft | 294 kts | 323° |
| 2026-04-30 19:20 | 13.92614 | 100.70442 | 9194 ft | 295 kts | 321° |
| 2026-04-30 19:20 | 13.95522 | 100.67399 | 10258 ft | 304 kts | 309° |
| 2026-04-30 19:21 | 13.96932 | 100.65680 | 10450 ft | 325 kts | 309° |
| 2026-04-30 19:21 | 14.00026 | 100.61907 | 10755 ft | 364 kts | 309° |
| 2026-04-30 19:22 | 14.03437 | 100.57829 | 11516 ft | 386 kts | 310° |
| 2026-04-30 19:22 | 14.08824 | 100.51485 | 13386 ft | 396 kts | 310° |
| 2026-04-30 19:23 | 14.14354 | 100.45002 | 14999 ft | 407 kts | 310° |
| 2026-04-30 19:24 | 14.18116 | 100.40590 | 16052 ft | 413 kts | 310° |
| 2026-04-30 19:24 | 14.20022 | 100.38353 | 16568 ft | 416 kts | 310° |
| 2026-04-30 19:24 | 14.23874 | 100.33828 | 17587 ft | 423 kts | 310° |
| 2026-04-30 19:25 | 14.29754 | 100.26919 | 18985 ft | 431 kts | 310° |
| 2026-04-30 19:26 | 14.33727 | 100.22249 | 19873 ft | 436 kts | 310° |
| 2026-04-30 19:26 | 14.37727 | 100.17543 | 20744 ft | 441 kts | 310° |
| 2026-04-30 19:26 | 14.39753 | 100.15159 | 21163 ft | 443 kts | 310° |
| 2026-04-30 19:27 | 14.43840 | 100.10346 | 21981 ft | 449 kts | 310° |
| 2026-04-30 19:27 | 14.47977 | 100.05472 | 22765 ft | 454 kts | 309° |
| 2026-04-30 19:28 | 14.50063 | 100.03012 | 23178 ft | 456 kts | 309° |
| 2026-04-30 19:28 | 14.54263 | 99.98059 | 23849 ft | 460 kts | 309° |
| 2026-04-30 19:29 | 14.58489 | 99.93074 | 24569 ft | 462 kts | 309° |
| 2026-04-30 19:29 | 14.60604 | 99.90577 | 24910 ft | 463 kts | 309° |
| 2026-04-30 19:30 | 14.66968 | 99.83058 | 25847 ft | 468 kts | 309° |
| 2026-04-30 19:30 | 14.71258 | 99.77986 | 26450 ft | 470 kts | 309° |
| 2026-04-30 19:31 | 14.75578 | 99.72875 | 27042 ft | 473 kts | 309° |
| 2026-04-30 19:31 | 14.77746 | 99.70309 | 27333 ft | 475 kts | 309° |
| 2026-04-30 19:31 | 14.82102 | 99.65150 | 27899 ft | 477 kts | 309° |
| 2026-04-30 19:32 | 14.84286 | 99.62562 | 28162 ft | 479 kts | 309° |
| 2026-04-30 19:32 | 14.86479 | 99.59963 | 28423 ft | 480 kts | 309° |
| 2026-04-30 19:32 | 14.88674 | 99.57361 | 28693 ft | 481 kts | 309° |
| 2026-04-30 19:32 | 14.90876 | 99.54751 | 28907 ft | 482 kts | 309° |
| 2026-04-30 19:33 | 14.93084 | 99.52130 | 29146 ft | 483 kts | 309° |
| 2026-04-30 19:33 | 14.95296 | 99.49504 | 29372 ft | 484 kts | 309° |
| 2026-04-30 19:33 | 14.97511 | 99.46872 | 29584 ft | 485 kts | 309° |
| 2026-04-30 19:33 | 14.99727 | 99.44242 | 29814 ft | 486 kts | 309° |
| 2026-04-30 19:34 | 15.01944 | 99.41608 | 30077 ft | 485 kts | 309° |
| 2026-04-30 19:34 | 15.04161 | 99.38974 | 30333 ft | 484 kts | 309° |
| 2026-04-30 19:34 | 15.08572 | 99.33730 | 30781 ft | 483 kts | 309° |
| 2026-04-30 19:35 | 15.10778 | 99.31105 | 31023 ft | 482 kts | 309° |
| 2026-04-30 19:35 | 15.12971 | 99.28495 | 31277 ft | 481 kts | 309° |
| 2026-04-30 19:35 | 15.15164 | 99.25884 | 31493 ft | 481 kts | 309° |
| 2026-04-30 19:35 | 15.17356 | 99.23273 | 31713 ft | 481 kts | 309° |
| 2026-04-30 19:36 | 15.19552 | 99.20656 | 31837 ft | 482 kts | 309° |
| 2026-04-30 19:36 | 15.26111 | 99.12836 | 31918 ft | 481 kts | 309° |
| 2026-04-30 19:37 | 15.30492 | 99.07610 | 31936 ft | 481 kts | 309° |
| 2026-04-30 19:37 | 15.34879 | 99.02371 | 31940 ft | 480 kts | 309° |
| 2026-04-30 19:38 | 15.39254 | 98.97143 | 31927 ft | 480 kts | 309° |
| 2026-04-30 19:38 | 15.43620 | 98.91923 | 31942 ft | 481 kts | 309° |
| 2026-04-30 19:39 | 15.48032 | 98.86641 | 31934 ft | 486 kts | 309° |
| 2026-04-30 19:39 | 15.52481 | 98.81314 | 31937 ft | 490 kts | 309° |
| 2026-04-30 19:40 | 15.56957 | 98.75950 | 31926 ft | 493 kts | 309° |
| 2026-04-30 19:40 | 15.61428 | 98.70590 | 31918 ft | 495 kts | 309° |
| 2026-04-30 19:41 | 15.65932 | 98.65187 | 31921 ft | 495 kts | 309° |
| 2026-04-30 19:41 | 15.70437 | 98.59776 | 31903 ft | 495 kts | 308° |
| 2026-04-30 19:42 | 15.74933 | 98.54372 | 31901 ft | 495 kts | 308° |
| 2026-04-30 19:42 | 15.79432 | 98.48961 | 31894 ft | 495 kts | 308° |
| 2026-04-30 19:43 | 15.83937 | 98.43539 | 31884 ft | 495 kts | 308° |
| 2026-04-30 19:44 | 15.90683 | 98.35412 | 31877 ft | 495 kts | 308° |
| 2026-04-30 19:44 | 15.95154 | 98.30021 | 31876 ft | 496 kts | 308° |
| 2026-04-30 19:45 | 15.99665 | 98.24576 | 31879 ft | 497 kts | 308° |
| 2026-04-30 19:45 | 16.04188 | 98.19114 | 31864 ft | 500 kts | 308° |
| 2026-04-30 19:46 | 16.08731 | 98.13623 | 31855 ft | 501 kts | 308° |
| 2026-04-30 19:46 | 16.13286 | 98.08114 | 31854 ft | 502 kts | 308° |
| 2026-04-30 19:47 | 16.17841 | 98.02600 | 31852 ft | 503 kts | 308° |
| 2026-04-30 19:47 | 16.22399 | 97.97079 | 31846 ft | 503 kts | 308° |
| 2026-04-30 19:48 | 16.26959 | 97.91550 | 31843 ft | 503 kts | 308° |
| 2026-04-30 19:48 | 16.31514 | 97.86022 | 31833 ft | 503 kts | 308° |
| 2026-04-30 19:49 | 16.36045 | 97.80520 | 31838 ft | 503 kts | 308° |
| 2026-04-30 19:49 | 16.42620 | 97.72024 | 31838 ft | 502 kts | 304° |
| 2026-04-30 19:50 | 16.46869 | 97.66249 | 31835 ft | 502 kts | 304° |
| 2026-04-30 19:50 | 16.51139 | 97.60494 | 31830 ft | 501 kts | 305° |
| 2026-04-30 19:51 | 16.55428 | 97.54760 | 31828 ft | 501 kts | 305° |
| 2026-04-30 19:51 | 16.59717 | 97.49035 | 31829 ft | 501 kts | 305° |
| 2026-04-30 19:52 | 16.64005 | 97.43305 | 31824 ft | 501 kts | 304° |
| 2026-04-30 19:52 | 16.68289 | 97.37573 | 31823 ft | 500 kts | 304° |
| 2026-04-30 19:53 | 16.72559 | 97.31853 | 31823 ft | 500 kts | 304° |
| 2026-04-30 19:53 | 16.76829 | 97.26128 | 31823 ft | 500 kts | 304° |
| 2026-04-30 19:54 | 16.81069 | 97.20439 | 31819 ft | 499 kts | 304° |
| 2026-04-30 19:54 | 16.85330 | 97.14718 | 31819 ft | 499 kts | 304° |
| 2026-04-30 19:55 | 16.89586 | 97.08997 | 31820 ft | 499 kts | 304° |
| 2026-04-30 19:55 | 16.93844 | 97.03270 | 31818 ft | 499 kts | 304° |
| 2026-04-30 19:56 | 16.98103 | 96.97537 | 31820 ft | 499 kts | 304° |
| 2026-04-30 19:56 | 17.02356 | 96.91807 | 31820 ft | 499 kts | 304° |
| 2026-04-30 19:57 | 17.06607 | 96.86075 | 31823 ft | 499 kts | 304° |
| 2026-04-30 19:57 | 17.10858 | 96.80339 | 31822 ft | 499 kts | 304° |
| 2026-04-30 19:58 | 17.15108 | 96.74597 | 31820 ft | 499 kts | 304° |
| 2026-04-30 19:58 | 17.19357 | 96.68854 | 31819 ft | 500 kts | 304° |
| 2026-04-30 19:59 | 17.23611 | 96.63098 | 31816 ft | 500 kts | 304° |
| 2026-04-30 20:00 | 17.29986 | 96.54462 | 31817 ft | 499 kts | 303° |
| 2026-04-30 20:00 | 17.34205 | 96.48688 | 31828 ft | 499 kts | 303° |
| 2026-04-30 20:01 | 17.40361 | 96.39972 | 31825 ft | 499 kts | 302° |
| 2026-04-30 20:01 | 17.44473 | 96.34136 | 31820 ft | 498 kts | 302° |
| 2026-04-30 20:02 | 17.50651 | 96.25394 | 31822 ft | 498 kts | 302° |
| 2026-04-30 20:03 | 17.56852 | 96.16621 | 31825 ft | 498 kts | 302° |
| 2026-04-30 20:03 | 17.60982 | 96.10771 | 31846 ft | 499 kts | 302° |
| 2026-04-30 20:04 | 17.65116 | 96.04906 | 31834 ft | 500 kts | 302° |
| 2026-04-30 20:05 | 17.71310 | 95.96114 | 31838 ft | 499 kts | 302° |
| 2026-04-30 20:05 | 17.77493 | 95.87325 | 31832 ft | 498 kts | 302° |
| 2026-04-30 20:06 | 17.81579 | 95.81511 | 31831 ft | 498 kts | 302° |
| 2026-04-30 20:06 | 17.85682 | 95.75666 | 31837 ft | 497 kts | 302° |
| 2026-04-30 20:07 | 17.89782 | 95.69821 | 31838 ft | 497 kts | 302° |
| 2026-04-30 20:08 | 17.95917 | 95.61064 | 31835 ft | 496 kts | 302° |
| 2026-04-30 20:08 | 17.99311 | 95.56216 | 31839 ft | 495 kts | 301° |
| 2026-04-30 20:09 | 18.03391 | 95.50382 | 31831 ft | 494 kts | 301° |
| 2026-04-30 20:09 | 18.09494 | 95.41645 | 31833 ft | 494 kts | 301° |
| 2026-04-30 20:10 | 18.15586 | 95.32913 | 31832 ft | 493 kts | 301° |
| 2026-04-30 20:11 | 18.21658 | 95.24198 | 31830 ft | 492 kts | 301° |
| 2026-04-30 20:11 | 18.25702 | 95.18386 | 31835 ft | 492 kts | 301° |
| 2026-04-30 20:12 | 18.31756 | 95.09677 | 31839 ft | 491 kts | 301° |
| 2026-04-30 20:13 | 18.35761 | 95.03910 | 31841 ft | 491 kts | 301° |
| 2026-04-30 20:13 | 18.39787 | 94.98105 | 31848 ft | 491 kts | 301° |
| 2026-04-30 20:14 | 18.43812 | 94.92298 | 31847 ft | 491 kts | 301° |
| 2026-04-30 20:14 | 18.47840 | 94.86483 | 31855 ft | 491 kts | 300° |
| 2026-04-30 20:15 | 18.51858 | 94.80674 | 31861 ft | 490 kts | 300° |
| 2026-04-30 20:15 | 18.55878 | 94.74861 | 31861 ft | 491 kts | 300° |
| 2026-04-30 20:16 | 18.59895 | 94.69042 | 31861 ft | 489 kts | 300° |
| 2026-04-30 20:16 | 18.63895 | 94.63245 | 31866 ft | 489 kts | 300° |
| 2026-04-30 20:17 | 18.67867 | 94.57482 | 31844 ft | 488 kts | 300° |
| 2026-04-30 20:17 | 18.71857 | 94.51689 | 31861 ft | 488 kts | 300° |
| 2026-04-30 20:18 | 18.75841 | 94.45901 | 31856 ft | 487 kts | 300° |
| 2026-04-30 20:18 | 18.79820 | 94.40112 | 31869 ft | 487 kts | 300° |
| 2026-04-30 20:19 | 18.83804 | 94.34309 | 31864 ft | 488 kts | 300° |
| 2026-04-30 20:19 | 18.87785 | 94.28506 | 31849 ft | 488 kts | 300° |
| 2026-04-30 20:20 | 18.91763 | 94.22705 | 31845 ft | 487 kts | 300° |
| 2026-04-30 20:20 | 18.95739 | 94.16901 | 31847 ft | 487 kts | 300° |
| 2026-04-30 20:21 | 18.99703 | 94.11108 | 31841 ft | 487 kts | 300° |
| 2026-04-30 20:21 | 19.03674 | 94.05297 | 31844 ft | 488 kts | 300° |
| 2026-04-30 20:22 | 19.07623 | 93.99514 | 31841 ft | 489 kts | 300° |
| 2026-04-30 20:22 | 19.11597 | 93.93691 | 31837 ft | 489 kts | 300° |
| 2026-04-30 20:23 | 19.15574 | 93.87858 | 31836 ft | 489 kts | 300° |
| 2026-04-30 20:23 | 19.19551 | 93.82018 | 31842 ft | 490 kts | 301° |
| 2026-04-30 20:24 | 19.23536 | 93.76160 | 31833 ft | 491 kts | 301° |
| 2026-04-30 20:24 | 19.27525 | 93.70293 | 31832 ft | 491 kts | 301° |
| 2026-04-30 20:25 | 19.33516 | 93.61469 | 31832 ft | 492 kts | 301° |
| 2026-04-30 20:26 | 19.39515 | 93.52621 | 31823 ft | 494 kts | 302° |
| 2026-04-30 20:26 | 19.43523 | 93.46701 | 31996 ft | 493 kts | 302° |
| 2026-04-30 20:26 | 19.45510 | 93.43766 | 32342 ft | 488 kts | 302° |
| 2026-04-30 20:27 | 19.49450 | 93.37941 | 32702 ft | 487 kts | 302° |
| 2026-04-30 20:27 | 19.53399 | 93.32094 | 32889 ft | 489 kts | 303° |
| 2026-04-30 20:28 | 19.57352 | 93.26235 | 33186 ft | 488 kts | 303° |
| 2026-04-30 20:28 | 19.61272 | 93.20421 | 33470 ft | 487 kts | 303° |
| 2026-04-30 20:29 | 19.65211 | 93.14573 | 33726 ft | 486 kts | 304° |
| 2026-04-30 20:30 | 19.71107 | 93.05809 | 33819 ft | 486 kts | 304° |
| 2026-04-30 20:31 | 19.82884 | 92.88265 | 33821 ft | 486 kts | 304° |
| 2026-04-30 20:32 | 19.92637 | 92.73697 | 33817 ft | 484 kts | 304° |
| 2026-04-30 20:33 | 19.98485 | 92.64944 | 33820 ft | 484 kts | 304° |
| 2026-04-30 20:34 | 20.04328 | 92.56186 | 33820 ft | 483 kts | 303° |
| 2026-04-30 20:35 | 20.10149 | 92.47447 | 33808 ft | 482 kts | 303° |
| 2026-04-30 20:35 | 20.15961 | 92.38710 | 33815 ft | 481 kts | 303° |
| 2026-04-30 20:36 | 20.19821 | 92.32900 | 33812 ft | 480 kts | 303° |
| 2026-04-30 20:37 | 20.25580 | 92.24220 | 33814 ft | 479 kts | 303° |
| 2026-04-30 20:37 | 20.29426 | 92.18416 | 33817 ft | 479 kts | 303° |
| 2026-04-30 20:38 | 20.33266 | 92.12616 | 33823 ft | 478 kts | 303° |
| 2026-04-30 20:38 | 20.37101 | 92.06816 | 33834 ft | 478 kts | 303° |
| 2026-04-30 20:39 | 20.42838 | 91.98137 | 33829 ft | 477 kts | 303° |
| 2026-04-30 20:40 | 20.48616 | 91.89479 | 33827 ft | 478 kts | 304° |
| 2026-04-30 20:40 | 20.52468 | 91.83711 | 33836 ft | 477 kts | 303° |
| 2026-04-30 20:41 | 20.58243 | 91.75037 | 33837 ft | 478 kts | 303° |
| 2026-04-30 20:41 | 20.62066 | 91.69285 | 33838 ft | 478 kts | 303° |
| 2026-04-30 20:42 | 20.65918 | 91.63484 | 33830 ft | 479 kts | 303° |
| 2026-04-30 20:43 | 20.71697 | 91.54770 | 33832 ft | 480 kts | 303° |
| 2026-04-30 20:43 | 20.75557 | 91.48941 | 33830 ft | 481 kts | 303° |
| 2026-04-30 20:44 | 20.81359 | 91.40170 | 33833 ft | 483 kts | 303° |
| 2026-04-30 20:45 | 20.89127 | 91.28405 | 33832 ft | 485 kts | 302° |
| 2026-04-30 20:45 | 20.93023 | 91.22496 | 33834 ft | 487 kts | 302° |
| 2026-04-30 20:46 | 21.00829 | 91.10637 | 33834 ft | 490 kts | 302° |
| 2026-04-30 20:47 | 21.06722 | 91.01667 | 33839 ft | 492 kts | 302° |
| 2026-04-30 20:48 | 21.12643 | 90.92642 | 33844 ft | 494 kts | 302° |
| 2026-04-30 20:48 | 21.16600 | 90.86602 | 33845 ft | 495 kts | 301° |
| 2026-04-30 20:49 | 21.20556 | 90.80560 | 33831 ft | 495 kts | 301° |
| 2026-04-30 20:50 | 21.26493 | 90.71474 | 33826 ft | 497 kts | 301° |
| 2026-04-30 20:50 | 21.30465 | 90.65386 | 33835 ft | 499 kts | 301° |
| 2026-04-30 20:51 | 21.34422 | 90.59313 | 33829 ft | 501 kts | 301° |
| 2026-04-30 20:51 | 21.40432 | 90.50083 | 33816 ft | 504 kts | 300° |
| 2026-04-30 20:52 | 21.44448 | 90.43906 | 33813 ft | 506 kts | 300° |
| 2026-04-30 20:53 | 21.50497 | 90.34585 | 33810 ft | 508 kts | 301° |
| 2026-04-30 20:53 | 21.54540 | 90.28351 | 33803 ft | 509 kts | 301° |
| 2026-04-30 20:54 | 21.60602 | 90.18987 | 33793 ft | 510 kts | 301° |
| 2026-04-30 20:55 | 21.66677 | 90.09591 | 33779 ft | 509 kts | 301° |
| 2026-04-30 20:55 | 21.70717 | 90.03330 | 33784 ft | 509 kts | 301° |
| 2026-04-30 20:56 | 21.76087 | 89.94998 | 33778 ft | 509 kts | 301° |
| 2026-04-30 20:57 | 21.82142 | 89.85586 | 33773 ft | 510 kts | 301° |
| 2026-04-30 20:57 | 21.86183 | 89.79296 | 33768 ft | 511 kts | 301° |
| 2026-04-30 20:58 | 21.92230 | 89.69873 | 33771 ft | 513 kts | 301° |
| 2026-04-30 20:58 | 21.96282 | 89.63548 | 33767 ft | 513 kts | 301° |
| 2026-04-30 20:59 | 22.02354 | 89.54057 | 33770 ft | 513 kts | 301° |
| 2026-04-30 21:00 | 22.10449 | 89.41378 | 33771 ft | 513 kts | 301° |
| 2026-04-30 21:01 | 22.16511 | 89.31864 | 33777 ft | 513 kts | 301° |
| 2026-04-30 21:02 | 22.22538 | 89.22385 | 33766 ft | 512 kts | 301° |
| 2026-04-30 21:02 | 22.26565 | 89.16044 | 33766 ft | 512 kts | 301° |
| 2026-04-30 21:03 | 22.30592 | 89.09695 | 33772 ft | 512 kts | 301° |
| 2026-04-30 21:03 | 22.34618 | 89.03341 | 33772 ft | 511 kts | 301° |
| 2026-04-30 21:04 | 22.38626 | 88.97007 | 33778 ft | 510 kts | 301° |
| 2026-04-30 21:04 | 22.44626 | 88.87510 | 33777 ft | 509 kts | 301° |
| 2026-04-30 21:05 | 22.48618 | 88.81184 | 33773 ft | 509 kts | 301° |
| 2026-04-30 21:05 | 22.52606 | 88.74855 | 33769 ft | 508 kts | 300° |
| 2026-04-30 21:06 | 22.56579 | 88.68542 | 33764 ft | 507 kts | 300° |
| 2026-04-30 21:06 | 22.60548 | 88.62228 | 33758 ft | 507 kts | 300° |
| 2026-04-30 21:07 | 22.64493 | 88.55945 | 33753 ft | 508 kts | 300° |
| 2026-04-30 21:07 | 22.68458 | 88.49622 | 33748 ft | 508 kts | 300° |
| 2026-04-30 21:08 | 22.72429 | 88.43282 | 33749 ft | 508 kts | 300° |
| 2026-04-30 21:08 | 22.76397 | 88.36940 | 33749 ft | 508 kts | 300° |
| 2026-04-30 21:09 | 22.80360 | 88.30598 | 33753 ft | 508 kts | 300° |
| 2026-04-30 21:09 | 22.84314 | 88.24262 | 33762 ft | 508 kts | 300° |
| 2026-04-30 21:10 | 22.88271 | 88.17915 | 33781 ft | 508 kts | 300° |
| 2026-04-30 21:10 | 22.92225 | 88.11563 | 33784 ft | 508 kts | 300° |
| 2026-04-30 21:11 | 22.96170 | 88.05220 | 33787 ft | 507 kts | 300° |
| 2026-04-30 21:11 | 23.00096 | 87.98898 | 33785 ft | 507 kts | 300° |
| 2026-04-30 21:12 | 23.04032 | 87.92552 | 33791 ft | 507 kts | 300° |
| 2026-04-30 21:12 | 23.07988 | 87.86167 | 33790 ft | 506 kts | 300° |
| 2026-04-30 21:13 | 23.11910 | 87.79829 | 33796 ft | 504 kts | 300° |
| 2026-04-30 21:13 | 23.15788 | 87.73555 | 33801 ft | 503 kts | 300° |
| 2026-04-30 21:14 | 23.19683 | 87.67246 | 33804 ft | 502 kts | 300° |
| 2026-04-30 21:14 | 23.23563 | 87.60951 | 33807 ft | 501 kts | 300° |
| 2026-04-30 21:15 | 23.27431 | 87.54670 | 33811 ft | 499 kts | 300° |
| 2026-04-30 21:15 | 23.31286 | 87.48402 | 33810 ft | 498 kts | 300° |
| 2026-04-30 21:16 | 23.35126 | 87.42149 | 33811 ft | 497 kts | 300° |
| 2026-04-30 21:16 | 23.38970 | 87.35883 | 33815 ft | 497 kts | 300° |
| 2026-04-30 21:17 | 23.42811 | 87.29613 | 33818 ft | 498 kts | 300° |
| 2026-04-30 21:17 | 23.46643 | 87.23351 | 33820 ft | 498 kts | 300° |
| 2026-04-30 21:18 | 23.50486 | 87.17064 | 33821 ft | 498 kts | 300° |
| 2026-04-30 21:18 | 23.54328 | 87.10771 | 33830 ft | 498 kts | 300° |
| 2026-04-30 21:19 | 23.58138 | 87.04522 | 33817 ft | 498 kts | 300° |
| 2026-04-30 21:19 | 23.61973 | 86.98225 | 33830 ft | 498 kts | 301° |
| 2026-04-30 21:20 | 23.65803 | 86.91927 | 33828 ft | 497 kts | 301° |
| 2026-04-30 21:20 | 23.69621 | 86.85642 | 33831 ft | 496 kts | 301° |
| 2026-04-30 21:21 | 23.73432 | 86.79361 | 33832 ft | 495 kts | 301° |
| 2026-04-30 21:22 | 23.79131 | 86.69952 | 33838 ft | 495 kts | 302° |
| 2026-04-30 21:23 | 23.86679 | 86.57464 | 33834 ft | 493 kts | 302° |
| 2026-04-30 21:23 | 23.92345 | 86.48068 | 33843 ft | 494 kts | 302° |
| 2026-04-30 21:24 | 23.96123 | 86.41794 | 33841 ft | 493 kts | 302° |
| 2026-04-30 21:24 | 23.99892 | 86.35527 | 33845 ft | 493 kts | 302° |
| 2026-04-30 21:25 | 24.05530 | 86.26137 | 33848 ft | 492 kts | 302° |
| 2026-04-30 21:26 | 24.11167 | 86.16731 | 33857 ft | 492 kts | 302° |
| 2026-04-30 21:27 | 24.16756 | 86.07388 | 33862 ft | 490 kts | 302° |
| 2026-04-30 21:27 | 24.20479 | 86.01154 | 33863 ft | 488 kts | 302° |
| 2026-04-30 21:28 | 24.26030 | 85.91844 | 33858 ft | 485 kts | 303° |
| 2026-04-30 21:29 | 24.31539 | 85.82587 | 33852 ft | 482 kts | 303° |
| 2026-04-30 21:30 | 24.40651 | 85.67238 | 33847 ft | 478 kts | 303° |
| 2026-04-30 21:31 | 24.49641 | 85.52047 | 33844 ft | 473 kts | 303° |
| 2026-04-30 21:32 | 24.54999 | 85.42970 | 33837 ft | 471 kts | 303° |
| 2026-04-30 21:32 | 24.58558 | 85.36932 | 33825 ft | 470 kts | 304° |
| 2026-04-30 21:33 | 24.63870 | 85.27907 | 33818 ft | 468 kts | 304° |
| 2026-04-30 21:34 | 24.67402 | 85.21896 | 33795 ft | 467 kts | 304° |
| 2026-04-30 21:34 | 24.72683 | 85.12894 | 33810 ft | 467 kts | 304° |
| 2026-04-30 21:35 | 24.76199 | 85.06892 | 33800 ft | 466 kts | 304° |
| 2026-04-30 21:35 | 24.79704 | 85.00900 | 33797 ft | 465 kts | 304° |
| 2026-04-30 21:36 | 24.83181 | 84.94949 | 33797 ft | 464 kts | 304° |
| 2026-04-30 21:37 | 24.90154 | 84.82995 | 33795 ft | 464 kts | 304° |
| 2026-04-30 21:37 | 24.93635 | 84.77014 | 33799 ft | 463 kts | 304° |
| 2026-04-30 21:38 | 24.97105 | 84.71046 | 33795 ft | 462 kts | 304° |
| 2026-04-30 21:38 | 25.00563 | 84.65089 | 33793 ft | 461 kts | 304° |
| 2026-04-30 21:39 | 25.04020 | 84.59130 | 33797 ft | 460 kts | 304° |
| 2026-04-30 21:39 | 25.07447 | 84.53213 | 33796 ft | 459 kts | 304° |
| 2026-04-30 21:40 | 25.10878 | 84.47282 | 33786 ft | 458 kts | 304° |
| 2026-04-30 21:40 | 25.14299 | 84.41362 | 33788 ft | 457 kts | 304° |
| 2026-04-30 21:41 | 25.17710 | 84.35451 | 33788 ft | 456 kts | 304° |
| 2026-04-30 21:41 | 25.21111 | 84.29549 | 33783 ft | 454 kts | 304° |
| 2026-04-30 21:42 | 25.24498 | 84.23666 | 33786 ft | 453 kts | 304° |
| 2026-04-30 21:42 | 25.27875 | 84.17791 | 33779 ft | 453 kts | 304° |
| 2026-04-30 21:43 | 25.30677 | 84.12912 | 33772 ft | 452 kts | 304° |
| 2026-04-30 21:43 | 25.34587 | 84.06094 | 33774 ft | 451 kts | 303° |
| 2026-04-30 21:44 | 25.37939 | 84.00242 | 33772 ft | 450 kts | 303° |
| 2026-04-30 21:44 | 25.41285 | 83.94393 | 33770 ft | 450 kts | 303° |
| 2026-04-30 21:45 | 25.44630 | 83.88539 | 33768 ft | 450 kts | 303° |
| 2026-04-30 21:45 | 25.47970 | 83.82685 | 33766 ft | 449 kts | 303° |
| 2026-04-30 21:46 | 25.51302 | 83.76839 | 33763 ft | 449 kts | 303° |
| 2026-04-30 21:46 | 25.54072 | 83.71972 | 33764 ft | 449 kts | 303° |
| 2026-04-30 21:47 | 25.57397 | 83.66125 | 33760 ft | 448 kts | 303° |
| 2026-04-30 21:47 | 25.60714 | 83.60283 | 33762 ft | 448 kts | 303° |
| 2026-04-30 21:48 | 25.64037 | 83.54425 | 33765 ft | 448 kts | 303° |
| 2026-04-30 21:48 | 25.67348 | 83.48579 | 33765 ft | 448 kts | 303° |
| 2026-04-30 21:49 | 25.70665 | 83.42715 | 33765 ft | 448 kts | 303° |
| 2026-04-30 21:49 | 25.73953 | 83.36895 | 33762 ft | 448 kts | 303° |
| 2026-04-30 21:50 | 25.77264 | 83.31029 | 33760 ft | 448 kts | 303° |
| 2026-04-30 21:50 | 25.80708 | 83.25269 | 33763 ft | 448 kts | 306° |
| 2026-04-30 21:51 | 25.84345 | 83.19656 | 33761 ft | 448 kts | 306° |
| 2026-04-30 21:51 | 25.87996 | 83.14041 | 33761 ft | 448 kts | 306° |
| 2026-04-30 21:52 | 25.91634 | 83.08413 | 33758 ft | 448 kts | 306° |
| 2026-04-30 21:52 | 25.95256 | 83.02784 | 33760 ft | 448 kts | 306° |
| 2026-04-30 21:53 | 25.98877 | 82.97147 | 33762 ft | 448 kts | 306° |
| 2026-04-30 21:53 | 26.02496 | 82.91506 | 33761 ft | 448 kts | 306° |
| 2026-04-30 21:54 | 26.06106 | 82.85873 | 33761 ft | 447 kts | 306° |
| 2026-04-30 21:54 | 26.09708 | 82.80246 | 33762 ft | 446 kts | 306° |
| 2026-04-30 21:55 | 26.13304 | 82.74623 | 33762 ft | 446 kts | 306° |
| 2026-04-30 21:55 | 26.16873 | 82.69033 | 33764 ft | 446 kts | 306° |
| 2026-04-30 21:56 | 26.20462 | 82.63406 | 33761 ft | 445 kts | 306° |
| 2026-04-30 21:56 | 26.24045 | 82.57782 | 33768 ft | 445 kts | 306° |
| 2026-04-30 21:57 | 26.27627 | 82.52152 | 33774 ft | 445 kts | 305° |
| 2026-04-30 21:57 | 26.31206 | 82.46519 | 33773 ft | 445 kts | 305° |
| 2026-04-30 21:58 | 26.34782 | 82.40885 | 33774 ft | 445 kts | 305° |
| 2026-04-30 21:58 | 26.38350 | 82.35256 | 33774 ft | 444 kts | 305° |
| 2026-04-30 21:59 | 26.41916 | 82.29623 | 33777 ft | 445 kts | 305° |
| 2026-04-30 22:00 | 26.47268 | 82.21157 | 33781 ft | 445 kts | 305° |
| 2026-04-30 22:00 | 26.52620 | 82.12675 | 33784 ft | 445 kts | 305° |
| 2026-04-30 22:01 | 26.56182 | 82.07021 | 33781 ft | 445 kts | 305° |
| 2026-04-30 22:01 | 26.59720 | 82.01396 | 33784 ft | 445 kts | 306° |
| 2026-04-30 22:02 | 26.63283 | 81.95726 | 33785 ft | 446 kts | 306° |
| 2026-04-30 22:02 | 26.66847 | 81.90048 | 33779 ft | 446 kts | 306° |
| 2026-04-30 22:03 | 26.70404 | 81.84373 | 33783 ft | 445 kts | 306° |
| 2026-04-30 22:03 | 26.73959 | 81.78693 | 33779 ft | 446 kts | 306° |
| 2026-04-30 22:04 | 26.77513 | 81.73009 | 33782 ft | 446 kts | 306° |
| 2026-04-30 22:05 | 26.82841 | 81.64473 | 33773 ft | 445 kts | 306° |
| 2026-04-30 22:05 | 26.86383 | 81.58789 | 33771 ft | 445 kts | 306° |
| 2026-04-30 22:06 | 26.89905 | 81.53130 | 33773 ft | 446 kts | 306° |
| 2026-04-30 22:06 | 26.95397 | 81.44697 | 33770 ft | 445 kts | 311° |
| 2026-04-30 22:07 | 26.99489 | 81.39475 | 33769 ft | 446 kts | 311° |
| 2026-04-30 22:07 | 27.03582 | 81.34244 | 33768 ft | 446 kts | 311° |
| 2026-04-30 22:08 | 27.07662 | 81.29000 | 33764 ft | 446 kts | 311° |
| 2026-04-30 22:08 | 27.11732 | 81.23751 | 33766 ft | 445 kts | 311° |
| 2026-04-30 22:09 | 27.15795 | 81.18501 | 33762 ft | 445 kts | 311° |
| 2026-04-30 22:09 | 27.19853 | 81.13252 | 33761 ft | 446 kts | 311° |
| 2026-04-30 22:10 | 27.23931 | 81.07970 | 33758 ft | 448 kts | 311° |
| 2026-04-30 22:10 | 27.28014 | 81.02677 | 33759 ft | 449 kts | 311° |
| 2026-04-30 22:11 | 27.34138 | 80.94725 | 33761 ft | 451 kts | 310° |
| 2026-04-30 22:12 | 27.38249 | 80.89378 | 33761 ft | 452 kts | 310° |
| 2026-04-30 22:12 | 27.42367 | 80.84017 | 33756 ft | 453 kts | 310° |
| 2026-04-30 22:13 | 27.46495 | 80.78635 | 33757 ft | 454 kts | 310° |
| 2026-04-30 22:13 | 27.50623 | 80.73246 | 33755 ft | 455 kts | 310° |
| 2026-04-30 22:14 | 27.54754 | 80.67847 | 33755 ft | 455 kts | 310° |
| 2026-04-30 22:14 | 27.58894 | 80.62429 | 33759 ft | 456 kts | 310° |
| 2026-04-30 22:15 | 27.63028 | 80.57013 | 33756 ft | 456 kts | 310° |
| 2026-04-30 22:15 | 27.67157 | 80.51596 | 33759 ft | 455 kts | 310° |
| 2026-04-30 22:16 | 27.71278 | 80.46182 | 33761 ft | 455 kts | 310° |
| 2026-04-30 22:17 | 27.79504 | 80.35356 | 33765 ft | 456 kts | 310° |
| 2026-04-30 22:17 | 27.85691 | 80.27196 | 33760 ft | 455 kts | 310° |
| 2026-04-30 22:18 | 27.91870 | 80.19029 | 33760 ft | 455 kts | 310° |
| 2026-04-30 22:19 | 27.98035 | 80.10867 | 33777 ft | 454 kts | 310° |
| 2026-04-30 22:20 | 28.04190 | 80.02700 | 33773 ft | 455 kts | 310° |
| 2026-04-30 22:20 | 28.10317 | 79.94556 | 33771 ft | 455 kts | 310° |
| 2026-04-30 22:21 | 28.14417 | 79.89098 | 33776 ft | 455 kts | 310° |
| 2026-04-30 22:21 | 28.18519 | 79.83630 | 33775 ft | 454 kts | 310° |
| 2026-04-30 22:22 | 28.22614 | 79.78165 | 33778 ft | 454 kts | 310° |
| 2026-04-30 22:22 | 28.26698 | 79.72705 | 33778 ft | 454 kts | 310° |
| 2026-04-30 22:23 | 28.30783 | 79.67239 | 33784 ft | 454 kts | 310° |
| 2026-04-30 22:23 | 28.34835 | 79.61810 | 33782 ft | 453 kts | 310° |
| 2026-04-30 22:24 | 28.38910 | 79.56341 | 33783 ft | 453 kts | 310° |
| 2026-04-30 22:24 | 28.43006 | 79.50839 | 33785 ft | 453 kts | 310° |
| 2026-04-30 22:25 | 28.47038 | 79.45415 | 33785 ft | 452 kts | 310° |
| 2026-04-30 22:25 | 28.51096 | 79.39949 | 33788 ft | 452 kts | 310° |
| 2026-04-30 22:26 | 28.57169 | 79.31754 | 33786 ft | 452 kts | 310° |
| 2026-04-30 22:27 | 28.61220 | 79.26281 | 33788 ft | 452 kts | 309° |
| 2026-04-30 22:27 | 28.67301 | 79.18048 | 33792 ft | 453 kts | 309° |
| 2026-04-30 22:28 | 28.73376 | 79.09809 | 33785 ft | 452 kts | 309° |
| 2026-04-30 22:29 | 28.81467 | 78.98809 | 33789 ft | 453 kts | 309° |
| 2026-04-30 22:31 | 28.95595 | 78.79532 | 33785 ft | 452 kts | 309° |
| 2026-04-30 22:32 | 29.05615 | 78.65804 | 33703 ft | 440 kts | 310° |
| 2026-04-30 22:33 | 29.14633 | 78.53411 | 33775 ft | 433 kts | 310° |
| 2026-04-30 22:35 | 29.24284 | 78.40107 | 33773 ft | 434 kts | 309° |
| 2026-04-30 22:36 | 29.33913 | 78.26789 | 33772 ft | 433 kts | 309° |
| 2026-04-30 22:37 | 29.41568 | 78.16171 | 33773 ft | 434 kts | 309° |
| 2026-04-30 22:38 | 29.49247 | 78.05491 | 33773 ft | 433 kts | 309° |
| 2026-04-30 22:39 | 29.54998 | 77.97475 | 33769 ft | 434 kts | 309° |
| 2026-04-30 22:40 | 29.66505 | 77.81387 | 33767 ft | 434 kts | 309° |
| 2026-04-30 22:41 | 29.76066 | 77.67970 | 33769 ft | 434 kts | 309° |
| 2026-04-30 22:43 | 29.87505 | 77.51860 | 33769 ft | 433 kts | 308° |
| 2026-04-30 22:44 | 29.95125 | 77.41093 | 33769 ft | 433 kts | 308° |
| 2026-04-30 22:45 | 30.06529 | 77.24924 | 33769 ft | 433 kts | 308° |
| 2026-04-30 22:47 | 30.17897 | 77.08740 | 33761 ft | 432 kts | 308° |
| 2026-04-30 22:48 | 30.25473 | 76.97919 | 33768 ft | 433 kts | 308° |
| 2026-04-30 22:49 | 30.36795 | 76.81691 | 33774 ft | 433 kts | 308° |
| 2026-04-30 22:51 | 30.48132 | 76.65377 | 33784 ft | 433 kts | 308° |
| 2026-04-30 22:52 | 30.53790 | 76.57208 | 33781 ft | 433 kts | 307° |
| 2026-04-30 22:53 | 30.61323 | 76.46307 | 33773 ft | 433 kts | 307° |
| 2026-04-30 22:53 | 30.66980 | 76.38102 | 33760 ft | 434 kts | 307° |
| 2026-04-30 22:55 | 30.76376 | 76.24434 | 33761 ft | 434 kts | 307° |
| 2026-04-30 22:56 | 30.83900 | 76.13455 | 33759 ft | 434 kts | 307° |
| 2026-04-30 22:57 | 30.93296 | 75.99702 | 33755 ft | 434 kts | 307° |
| 2026-04-30 22:58 | 31.00802 | 75.88680 | 33753 ft | 434 kts | 307° |
| 2026-04-30 22:59 | 31.12002 | 75.72175 | 33751 ft | 433 kts | 306° |